createdAt,value
2023-03-19T00:00:34.484Z,13.85
2023-03-19T00:03:01.413Z,12.57
2023-03-19T00:05:28.253Z,13.77
2023-03-19T00:07:55.021Z,13.20
2023-03-19T00:10:21.744Z,13.93
2023-03-19T00:12:48.398Z,12.63
2023-03-19T00:15:15.449Z,11.98
2023-03-19T00:17:42.922Z,16.92
2023-03-19T00:20:11.791Z,13.90
2023-03-19T00:22:39.922Z,11.80
2023-03-19T00:25:08.262Z,13.20
2023-03-19T00:27:36.151Z,19.55
2023-03-19T00:30:04.726Z,16.23
2023-03-19T00:32:33.350Z,13.85
2023-03-19T00:35:00.199Z,14.18
2023-03-19T00:37:27.435Z,17.73
2023-03-19T00:39:54.139Z,14.55
2023-03-19T00:42:20.906Z,15.00
2023-03-19T00:44:47.619Z,15.57
2023-03-19T00:47:14.323Z,16.05
2023-03-19T00:49:41.109Z,15.07
2023-03-19T00:52:08.357Z,13.27
2023-03-19T00:54:35.285Z,12.88
2023-03-19T00:57:02.074Z,14.48
2023-03-19T00:59:28.853Z,15.00
2023-03-19T01:01:55.506Z,14.25
2023-03-19T01:04:23.260Z,13.25
2023-03-19T01:06:50.217Z,10.77
2023-03-19T01:09:17.176Z,12.93
2023-03-19T01:11:44.055Z,10.50
2023-03-19T01:14:11.642Z,12.93
2023-03-19T01:16:38.379Z,11.35
2023-03-19T01:19:06.090Z,13.68
2023-03-19T01:21:33.344Z,11.82
2023-03-19T01:24:00.424Z,13.02
2023-03-19T01:26:27.776Z,14.70
2023-03-19T01:28:54.657Z,13.85
2023-03-19T01:31:22.051Z,10.02
2023-03-19T01:33:48.864Z,12.05
2023-03-19T01:36:15.589Z,15.70
2023-03-19T01:38:42.603Z,16.48
2023-03-19T01:41:09.640Z,13.20
2023-03-19T01:43:36.707Z,13.13
2023-03-19T01:46:15.703Z,13.57
2023-03-19T01:48:46.665Z,14.70
2023-03-19T01:51:17.225Z,11.25
2023-03-19T01:53:49.803Z,13.10
2023-03-19T01:56:38.331Z,13.27
2023-03-19T01:59:15.383Z,14.63
2023-03-19T02:01:56.820Z,12.55
2023-03-19T02:04:26.670Z,11.50
2023-03-19T02:06:57.496Z,12.18
2023-03-19T02:09:26.154Z,11.13
2023-03-19T02:11:54.531Z,10.90
2023-03-19T02:14:21.442Z,10.30
2023-03-19T02:16:48.611Z,10.80
2023-03-19T02:19:28.502Z,11.60
2023-03-19T02:21:56.369Z,10.10
2023-03-19T02:24:35.190Z,10.50
2023-03-19T02:27:02.432Z,11.80
2023-03-19T02:29:29.053Z,12.18
2023-03-19T02:31:55.723Z,12.02
2023-03-19T02:34:22.406Z,10.68
2023-03-19T02:37:00.762Z,10.40
2023-03-19T02:40:04.437Z,9.32
2023-03-19T02:42:31.232Z,12.52
2023-03-19T02:44:58.248Z,10.88
2023-03-19T02:47:26.142Z,10.20
2023-03-19T02:49:53.111Z,11.27
2023-03-19T02:52:19.765Z,9.98
2023-03-19T02:54:46.722Z,11.00
2023-03-19T02:57:13.600Z,9.38
2023-03-19T02:59:40.384Z,12.02
2023-03-19T03:02:07.201Z,12.35
2023-03-19T03:04:35.240Z,10.85
2023-03-19T03:07:02.316Z,9.75
2023-03-19T03:09:28.967Z,9.88
2023-03-19T03:11:55.839Z,10.57
2023-03-19T03:14:22.902Z,11.77
2023-03-19T03:16:49.616Z,10.32
2023-03-19T03:19:16.843Z,12.55
2023-03-19T03:21:43.536Z,11.48
2023-03-19T03:24:11.000Z,13.65
2023-03-19T03:26:38.935Z,10.48
2023-03-19T03:29:07.052Z,12.90
2023-03-19T03:31:34.747Z,14.40
2023-03-19T03:34:02.206Z,12.63
2023-03-19T03:36:28.966Z,13.75
2023-03-19T03:38:55.948Z,11.75
2023-03-19T03:41:22.666Z,11.07
2023-03-19T03:43:49.405Z,11.60
2023-03-19T03:46:16.199Z,11.95
2023-03-19T03:48:42.832Z,13.68
2023-03-19T03:51:10.107Z,13.15
2023-03-19T03:53:36.942Z,12.90
2023-03-19T03:56:03.725Z,10.60
2023-03-19T03:58:30.358Z,10.00
2023-03-19T04:00:57.047Z,12.05
2023-03-19T04:03:24.627Z,9.57
2023-03-19T04:05:51.727Z,14.57
2023-03-19T04:08:18.410Z,11.23
2023-03-19T04:10:45.134Z,10.55
2023-03-19T04:13:12.844Z,11.48
2023-03-19T04:15:42.740Z,15.40
2023-03-19T04:18:09.584Z,12.23
2023-03-19T04:20:36.679Z,12.60
2023-03-19T04:23:03.465Z,16.73
2023-03-19T04:25:30.459Z,14.82
2023-03-19T04:27:58.172Z,11.40
2023-03-19T04:30:24.937Z,12.07
2023-03-19T04:32:51.581Z,11.70
2023-03-19T04:35:18.266Z,10.27
2023-03-19T04:37:48.402Z,11.32
2023-03-19T04:40:16.910Z,10.88
2023-03-19T04:42:44.612Z,13.70
2023-03-19T04:45:11.847Z,14.65
2023-03-19T04:47:38.899Z,12.55
2023-03-19T04:50:07.870Z,11.35
2023-03-19T04:52:34.576Z,11.25
2023-03-19T04:55:01.269Z,9.35
2023-03-19T04:57:27.982Z,10.40
2023-03-19T04:59:54.696Z,10.32
2023-03-19T05:02:21.917Z,13.75
2023-03-19T05:04:48.722Z,11.20
2023-03-19T05:07:15.442Z,12.18
2023-03-19T05:09:43.833Z,11.13
2023-03-19T05:12:12.266Z,10.57
2023-03-19T05:14:39.146Z,9.77
2023-03-19T05:17:05.909Z,13.52
2023-03-19T05:19:32.661Z,12.05
2023-03-19T05:21:59.388Z,9.88
2023-03-19T05:24:26.108Z,11.90
2023-03-19T05:26:52.772Z,12.57
2023-03-19T05:29:19.424Z,12.90
2023-03-19T05:31:46.148Z,13.27
2023-03-19T05:34:13.001Z,10.07
2023-03-19T05:36:40.078Z,10.73
2023-03-19T05:39:06.850Z,12.13
2023-03-19T05:41:33.540Z,9.50
2023-03-19T05:44:00.252Z,9.55
2023-03-19T05:46:27.396Z,11.07
2023-03-19T05:48:54.180Z,13.43
2023-03-19T05:51:20.967Z,11.00
2023-03-19T05:53:47.702Z,12.00
2023-03-19T05:56:14.463Z,11.68
2023-03-19T05:58:41.132Z,14.13
2023-03-19T06:01:07.841Z,13.40
2023-03-19T06:03:34.505Z,11.82
2023-03-19T06:06:01.299Z,11.00
2023-03-19T06:08:28.018Z,12.93
2023-03-19T06:10:54.728Z,13.20
2023-03-19T06:13:21.439Z,12.70
2023-03-19T06:15:49.757Z,11.85
2023-03-19T06:18:17.606Z,12.02
2023-03-19T06:20:44.449Z,10.98
2023-03-19T06:23:11.067Z,12.27
2023-03-19T06:25:37.935Z,12.70
2023-03-19T06:28:05.714Z,14.65
2023-03-19T06:30:33.842Z,12.27
2023-03-19T06:33:00.786Z,13.23
2023-03-19T06:35:27.640Z,12.38
2023-03-19T06:37:54.321Z,14.18
2023-03-19T06:40:21.020Z,13.07
2023-03-19T06:42:48.242Z,13.70
2023-03-19T06:45:21.830Z,13.93
2023-03-19T06:47:48.514Z,13.98
2023-03-19T06:50:17.862Z,14.05
2023-03-19T06:52:44.567Z,15.38
2023-03-19T06:55:12.275Z,14.20
2023-03-19T06:57:39.259Z,16.00
2023-03-19T07:00:06.978Z,16.23
2023-03-19T07:02:33.717Z,13.45
2023-03-19T07:05:00.412Z,14.63
2023-03-19T07:07:27.099Z,14.90
2023-03-19T07:09:53.821Z,14.65
2023-03-19T07:12:20.762Z,12.73
2023-03-19T07:14:47.419Z,11.10
2023-03-19T07:17:14.211Z,11.48
2023-03-19T07:19:41.098Z,13.15
2023-03-19T07:22:07.823Z,10.05
2023-03-19T07:24:34.448Z,9.95
2023-03-19T07:27:02.240Z,10.65
2023-03-19T07:29:29.010Z,10.77
2023-03-19T07:31:55.902Z,10.32
2023-03-19T07:34:23.181Z,11.88
2023-03-19T07:36:49.835Z,9.00
2023-03-19T07:39:16.632Z,10.02
2023-03-19T07:41:47.608Z,9.40
2023-03-19T07:44:15.952Z,9.40
2023-03-19T07:46:43.383Z,14.52
2023-03-19T07:49:10.308Z,10.93
2023-03-19T07:51:37.050Z,10.85
2023-03-19T07:54:03.869Z,7.85
2023-03-19T07:56:31.125Z,10.27
2023-03-19T07:58:57.920Z,10.73
2023-03-19T08:01:24.609Z,10.70
2023-03-19T08:03:51.182Z,9.90
2023-03-19T08:06:17.932Z,8.77
2023-03-19T08:08:44.555Z,10.20
2023-03-19T08:11:11.569Z,11.95
2023-03-19T08:13:38.314Z,8.77
2023-03-19T08:16:05.223Z,9.63
2023-03-19T08:18:32.313Z,8.80
2023-03-19T08:20:58.907Z,13.95
2023-03-19T08:23:26.966Z,11.45
2023-03-19T08:25:55.434Z,10.18
2023-03-19T08:28:22.341Z,11.65
2023-03-19T08:30:49.236Z,11.77
2023-03-19T08:33:16.591Z,10.95
2023-03-19T08:35:43.526Z,10.38
2023-03-19T08:38:11.070Z,9.75
2023-03-19T08:40:37.782Z,11.57
2023-03-19T08:43:04.622Z,9.85
2023-03-19T08:45:31.297Z,9.50
2023-03-19T08:47:58.474Z,10.63
2023-03-19T08:50:25.617Z,10.77
2023-03-19T08:52:52.677Z,8.38
2023-03-19T08:55:19.521Z,9.55
2023-03-19T08:57:46.290Z,9.32
2023-03-19T09:00:13.711Z,11.07
2023-03-19T09:02:40.433Z,11.55
2023-03-19T09:05:07.353Z,9.43
2023-03-19T09:07:34.003Z,9.38
2023-03-19T09:10:00.890Z,10.02
2023-03-19T09:12:27.626Z,8.40
2023-03-19T09:14:54.271Z,8.48
2023-03-19T09:17:21.018Z,8.40
2023-03-19T09:19:48.886Z,7.60
2023-03-19T09:22:15.540Z,8.55
2023-03-19T09:24:42.255Z,8.43
2023-03-19T09:27:08.964Z,8.50
2023-03-19T09:29:36.044Z,12.32
2023-03-19T09:32:02.744Z,9.15
2023-03-19T09:34:29.550Z,7.63
2023-03-19T09:36:56.211Z,9.77
2023-03-19T09:39:22.838Z,10.68
2023-03-19T09:42:13.600Z,9.75
2023-03-19T09:44:44.187Z,10.70
2023-03-19T09:47:26.041Z,9.02
2023-03-19T09:49:59.333Z,8.10
2023-03-19T09:52:47.926Z,10.88
2023-03-19T09:55:20.692Z,11.63
2023-03-19T09:57:48.223Z,7.93
2023-03-19T10:00:24.565Z,8.85
2023-03-19T10:02:57.075Z,8.20
2023-03-19T10:05:51.958Z,10.07
2023-03-19T10:08:42.847Z,8.25
2023-03-19T10:11:45.798Z,7.85
2023-03-19T10:14:21.404Z,8.05
2023-03-19T10:16:50.802Z,8.95
2023-03-19T10:19:24.332Z,9.30
2023-03-19T10:21:57.110Z,9.40
2023-03-19T10:24:34.800Z,8.40
2023-03-19T10:27:10.566Z,9.52
2023-03-19T10:29:38.993Z,7.18
2023-03-19T10:32:24.572Z,8.02
2023-03-19T10:34:54.826Z,6.75
2023-03-19T10:37:28.740Z,6.15
2023-03-19T10:40:00.209Z,6.00
2023-03-19T10:42:56.218Z,7.57
2023-03-19T10:45:30.327Z,5.88
2023-03-19T10:47:58.055Z,6.63
2023-03-19T10:50:52.020Z,8.20
2023-03-19T10:53:18.638Z,7.55
2023-03-19T10:55:54.304Z,7.18
2023-03-19T10:58:25.832Z,9.73
2023-03-19T11:01:05.674Z,7.85
2023-03-19T11:03:36.674Z,6.93
2023-03-19T11:06:33.688Z,9.65
2023-03-19T11:09:02.167Z,9.40
2023-03-19T11:11:53.342Z,7.65
2023-03-19T11:14:24.443Z,9.40
2023-03-19T11:17:28.216Z,6.75
2023-03-19T11:19:57.506Z,6.53
2023-03-19T11:22:33.907Z,6.90
2023-03-19T11:25:14.915Z,6.10
2023-03-19T11:27:42.059Z,6.30
2023-03-19T11:30:18.888Z,7.82
2023-03-19T11:33:29.319Z,6.55
2023-03-19T11:36:14.065Z,7.07
2023-03-19T11:41:24.742Z,6.13
2023-03-19T11:44:01.996Z,7.35
2023-03-19T11:46:55.614Z,6.80
2023-03-19T11:49:44.261Z,4.55
2023-03-19T11:52:23.094Z,5.68
2023-03-19T11:54:49.658Z,4.55
2023-03-19T11:57:28.449Z,3.10
2023-03-19T12:00:03.726Z,4.45
2023-03-19T12:02:55.904Z,4.28
2023-03-19T12:05:35.753Z,6.38
2023-03-19T12:08:48.051Z,3.92
2023-03-19T12:11:40.160Z,5.10
2023-03-19T12:14:12.889Z,4.18
2023-03-19T12:16:46.789Z,4.45
2023-03-19T12:19:51.572Z,3.53
2023-03-19T12:22:37.086Z,4.38
2023-03-19T12:25:21.268Z,5.47
2023-03-19T12:27:53.121Z,3.15
2023-03-19T12:30:43.733Z,4.97
2023-03-19T12:33:46.517Z,2.65
2023-03-19T12:36:18.277Z,2.85
2023-03-19T12:38:50.907Z,2.85
2023-03-19T12:41:27.039Z,3.45
2023-03-19T12:44:24.005Z,2.85
2023-03-19T12:47:02.139Z,1.83
2023-03-19T12:49:44.053Z,2.40
2023-03-19T12:52:24.324Z,2.78
2023-03-19T12:55:04.920Z,2.63
2023-03-19T12:57:49.737Z,3.72
2023-03-19T13:00:26.313Z,6.03
2023-03-19T13:03:22.964Z,1.52
2023-03-19T13:05:59.575Z,1.83
2023-03-19T13:08:39.654Z,0.82
2023-03-19T13:11:13.620Z,2.08
2023-03-19T13:13:58.618Z,3.80
2023-03-19T13:16:52.996Z,2.95
2023-03-19T13:19:54.078Z,2.88
2023-03-19T13:22:28.666Z,2.13
2023-03-19T13:24:56.592Z,2.53
2023-03-19T13:27:34.612Z,1.25
2023-03-19T13:30:15.855Z,0.93
2023-03-19T13:32:51.067Z,1.83
2023-03-19T13:35:37.012Z,2.00
2023-03-19T13:38:15.502Z,0.70
2023-03-19T13:40:52.178Z,3.20
2023-03-19T13:43:27.971Z,2.33
2023-03-19T13:46:05.908Z,4.22
2023-03-19T13:48:33.199Z,1.00
2023-03-19T13:51:26.692Z,1.63
2023-03-19T13:54:23.076Z,1.75
2023-03-19T13:57:07.745Z,3.13
2023-03-19T14:02:26.372Z,1.60
2023-03-19T14:05:04.128Z,1.05
2023-03-19T14:07:42.256Z,3.00
2023-03-19T14:10:15.150Z,3.33
2023-03-19T14:12:44.241Z,2.67
2023-03-19T14:15:10.799Z,1.92
2023-03-19T14:17:47.216Z,1.77
2023-03-19T14:20:15.758Z,2.72
2023-03-19T14:23:08.918Z,2.08
2023-03-19T14:26:16.322Z,2.85
2023-03-19T14:28:54.790Z,2.35
2023-03-19T14:34:18.681Z,1.88
2023-03-19T14:37:18.669Z,1.42
2023-03-19T14:39:49.146Z,1.67
2023-03-19T14:42:22.281Z,1.52
2023-03-19T14:45:14.431Z,1.73
2023-03-19T14:48:15.183Z,2.08
2023-03-19T14:51:19.255Z,1.98
2023-03-19T14:54:04.821Z,1.92
2023-03-19T14:56:34.331Z,2.35
2023-03-19T14:59:04.097Z,1.50
2023-03-19T15:01:33.523Z,3.13
2023-03-19T15:04:07.960Z,3.13
2023-03-19T15:06:38.351Z,2.53
2023-03-19T15:09:21.281Z,2.28
2023-03-19T15:11:57.879Z,2.45
2023-03-19T15:14:24.516Z,1.95
2023-03-19T15:17:09.223Z,3.50
2023-03-19T15:19:38.542Z,2.60
2023-03-19T15:22:12.437Z,1.60
2023-03-19T15:24:39.276Z,5.45
2023-03-19T15:27:24.653Z,4.00
2023-03-19T15:29:52.237Z,3.25
2023-03-19T15:32:52.120Z,3.13
2023-03-19T15:35:24.807Z,3.00
2023-03-19T15:37:55.487Z,4.32
2023-03-19T15:40:25.488Z,2.78
2023-03-19T15:42:53.080Z,5.25
2023-03-19T15:45:24.286Z,3.42
2023-03-19T15:48:08.158Z,3.40
2023-03-19T15:50:40.732Z,3.30
2023-03-19T15:53:22.565Z,4.90
2023-03-19T15:55:54.042Z,2.92
2023-03-19T15:58:27.159Z,6.43
2023-03-19T16:00:55.599Z,3.20
2023-03-19T16:03:44.227Z,2.33
2023-03-19T16:06:17.562Z,4.18
2023-03-19T16:09:25.949Z,3.65
2023-03-19T16:11:54.203Z,3.85
2023-03-19T16:14:35.196Z,2.53
2023-03-19T16:17:10.944Z,3.17
2023-03-19T16:19:40.129Z,2.95
2023-03-19T16:22:16.312Z,2.42
2023-03-19T16:24:45.424Z,4.95
2023-03-19T16:27:18.374Z,2.15
2023-03-19T16:29:47.887Z,2.00
2023-03-19T16:32:22.279Z,3.88
2023-03-19T16:34:52.479Z,3.63
2023-03-19T16:37:32.121Z,3.63
2023-03-19T16:40:21.713Z,2.10
2023-03-19T16:42:50.865Z,2.78
2023-03-19T16:45:17.980Z,2.90
2023-03-19T16:47:49.898Z,3.60
2023-03-19T16:50:18.723Z,2.92
2023-03-19T16:52:46.494Z,3.78
2023-03-19T16:55:21.717Z,2.88
2023-03-19T16:57:59.049Z,2.15
2023-03-19T17:00:29.044Z,1.58
2023-03-19T17:02:57.034Z,2.80
2023-03-19T17:05:26.031Z,1.75
2023-03-19T17:07:55.516Z,1.80
2023-03-19T17:10:25.200Z,2.42
2023-03-19T17:12:54.964Z,3.97
2023-03-19T17:15:35.416Z,3.05
2023-03-19T17:18:03.479Z,2.15
2023-03-19T17:20:39.554Z,1.30
2023-03-19T17:23:13.626Z,1.13
2023-03-19T17:25:40.588Z,1.85
2023-03-19T17:28:07.428Z,2.08
2023-03-19T17:30:34.396Z,2.53
2023-03-19T17:33:01.433Z,3.65
2023-03-19T17:35:28.211Z,2.30
2023-03-19T17:37:55.578Z,3.05
2023-03-19T17:40:25.011Z,2.65
2023-03-19T17:42:52.521Z,2.28
2023-03-19T17:45:23.118Z,2.33
2023-03-19T17:47:53.283Z,1.77
2023-03-19T17:50:24.106Z,3.47
2023-03-19T17:52:52.243Z,2.25
2023-03-19T17:55:25.541Z,1.58
2023-03-19T17:57:53.077Z,2.45
2023-03-19T18:00:21.755Z,4.80
2023-03-19T18:02:50.922Z,5.47
2023-03-19T18:05:20.471Z,6.32
2023-03-19T18:07:48.666Z,5.05
2023-03-19T18:10:27.518Z,4.10
2023-03-19T18:12:54.764Z,5.25
2023-03-19T18:15:22.569Z,3.20
2023-03-19T18:17:52.638Z,3.65
2023-03-19T18:20:21.482Z,3.13
2023-03-19T18:22:48.257Z,4.38
2023-03-19T18:25:21.996Z,3.08
2023-03-19T18:27:49.385Z,2.35
2023-03-19T18:30:18.310Z,7.30
2023-03-19T18:32:49.776Z,3.08
2023-03-19T18:35:27.468Z,3.50
2023-03-19T18:37:54.646Z,2.60
2023-03-19T18:40:24.681Z,3.58
2023-03-19T18:42:51.344Z,3.58
2023-03-19T18:45:18.416Z,2.10
2023-03-19T18:47:47.210Z,1.67
2023-03-19T18:50:20.573Z,1.35
2023-03-19T18:52:49.778Z,1.05
2023-03-19T18:55:17.532Z,2.17
2023-03-19T18:57:53.805Z,2.25
2023-03-19T19:00:32.672Z,3.50
2023-03-19T19:05:28.825Z,4.78
2023-03-19T19:08:01.239Z,2.33
2023-03-19T19:10:34.383Z,1.80
2023-03-19T19:13:02.051Z,4.03
2023-03-19T19:15:32.329Z,3.58
2023-03-19T19:17:59.242Z,3.67
2023-03-19T19:20:28.405Z,7.53
2023-03-19T19:22:55.905Z,4.15
2023-03-19T19:25:27.556Z,2.95
2023-03-19T19:28:00.903Z,2.75
2023-03-19T19:30:28.704Z,2.72
2023-03-19T19:32:55.435Z,1.73
2023-03-19T19:35:24.963Z,2.40
2023-03-19T19:37:52.564Z,2.10
2023-03-19T19:40:21.438Z,3.80
2023-03-19T19:42:52.237Z,1.98
2023-03-19T19:45:41.508Z,2.15
2023-03-19T19:48:14.917Z,2.28
2023-03-19T19:50:42.046Z,1.85
2023-03-19T19:53:09.090Z,3.17
2023-03-19T19:55:36.624Z,2.65
2023-03-19T19:58:03.961Z,2.90
2023-03-19T20:00:31.675Z,5.75
2023-03-19T20:02:59.769Z,3.15
2023-03-19T20:05:30.155Z,4.80
2023-03-19T20:07:59.658Z,5.45
2023-03-19T20:10:29.515Z,4.97
2023-03-19T20:12:59.525Z,3.83
2023-03-19T20:15:35.818Z,3.92
2023-03-19T20:18:04.945Z,6.63
2023-03-19T20:20:33.144Z,6.72
2023-03-19T20:23:02.074Z,6.05
2023-03-19T20:25:32.474Z,5.82
2023-03-19T20:28:01.338Z,4.22
2023-03-19T20:30:34.524Z,5.45
2023-03-19T20:33:02.077Z,4.65
2023-03-19T20:35:31.216Z,4.10
2023-03-19T20:37:59.405Z,3.08
2023-03-19T20:40:43.580Z,2.67
2023-03-19T20:43:31.873Z,2.85
2023-03-19T20:46:01.909Z,1.88
2023-03-19T20:48:29.160Z,2.63
2023-03-19T20:50:56.469Z,2.35
2023-03-19T20:53:23.547Z,3.90
2023-03-19T20:55:50.961Z,3.35
2023-03-19T20:58:34.485Z,2.63
2023-03-19T21:01:02.742Z,4.05
2023-03-19T21:03:31.388Z,3.65
2023-03-19T21:06:03.859Z,3.92
2023-03-19T21:08:37.207Z,6.10
2023-03-19T21:11:04.426Z,5.75
2023-03-19T21:13:32.038Z,3.65
2023-03-19T21:15:59.543Z,3.67
2023-03-19T21:18:26.384Z,4.22
2023-03-19T21:20:55.748Z,3.65
2023-03-19T21:23:28.030Z,3.55
2023-03-19T21:28:31.499Z,4.50
2023-03-19T21:30:58.318Z,4.72
2023-03-19T21:33:30.784Z,4.57
2023-03-19T21:35:58.534Z,3.75
2023-03-19T21:38:25.372Z,5.32
2023-03-19T21:40:55.397Z,6.45
2023-03-19T21:43:30.326Z,5.78
2023-03-19T21:45:57.553Z,6.20
2023-03-19T21:48:29.124Z,7.25
2023-03-19T21:50:56.482Z,6.03
2023-03-19T21:53:23.881Z,7.03
2023-03-19T21:55:52.620Z,6.82
2023-03-19T21:58:29.547Z,6.10
2023-03-19T22:00:56.349Z,5.32
2023-03-19T22:03:23.572Z,6.38
2023-03-19T22:05:51.824Z,7.30
2023-03-19T22:08:20.398Z,5.97
2023-03-19T22:10:56.678Z,5.25
2023-03-19T22:13:26.128Z,5.63
2023-03-19T22:15:54.352Z,5.20
2023-03-19T22:18:21.514Z,5.82
2023-03-19T22:20:50.338Z,6.82
2023-03-19T22:23:18.236Z,6.55
2023-03-19T22:25:47.895Z,6.18
2023-03-19T22:28:24.503Z,5.57
2023-03-19T22:30:51.190Z,6.22
2023-03-19T22:33:22.136Z,7.28
2023-03-19T22:35:49.612Z,5.30
2023-03-19T22:38:17.874Z,5.07
2023-03-19T22:40:52.870Z,6.63
2023-03-19T22:43:36.271Z,8.80
2023-03-19T22:46:11.817Z,7.72
2023-03-19T22:48:38.954Z,7.75
2023-03-19T22:51:06.634Z,6.68
2023-03-19T22:53:35.531Z,6.10
2023-03-19T22:56:03.283Z,7.30
2023-03-19T22:58:30.668Z,6.80
2023-03-19T23:00:57.878Z,7.63
2023-03-19T23:03:27.290Z,6.40
2023-03-19T23:05:59.161Z,8.30
2023-03-19T23:08:26.213Z,7.80
2023-03-19T23:10:53.414Z,6.43
2023-03-19T23:13:23.066Z,5.68
2023-03-19T23:15:54.884Z,6.68
2023-03-19T23:18:27.532Z,6.43
2023-03-19T23:20:54.297Z,5.82
2023-03-19T23:23:21.037Z,5.75
2023-03-19T23:25:47.724Z,6.03
2023-03-19T23:28:29.100Z,4.80
2023-03-19T23:30:56.229Z,5.28
2023-03-19T23:33:26.746Z,6.90
2023-03-19T23:35:56.387Z,7.53
2023-03-19T23:38:23.148Z,5.80
2023-03-19T23:40:51.774Z,6.28
2023-03-19T23:43:24.989Z,5.95
2023-03-19T23:45:54.155Z,6.45
2023-03-19T23:48:25.783Z,5.78
2023-03-19T23:50:53.092Z,7.18
2023-03-19T23:53:25.658Z,6.05
2023-03-19T23:55:57.965Z,5.72
2023-03-19T23:58:39.497Z,5.03
